createdAt,value
2022-12-18T00:04:25.925Z,21.03
2022-12-18T00:09:39.591Z,20.57
2022-12-18T00:14:41.663Z,19.23
2022-12-18T00:19:48.586Z,21.20
2022-12-18T00:24:55.124Z,20.93
2022-12-18T00:30:02.332Z,20.45
2022-12-18T00:35:10.184Z,19.83
2022-12-18T00:40:17.201Z,22.40
2022-12-18T00:45:24.930Z,20.65
2022-12-18T00:50:31.203Z,20.40
2022-12-18T00:55:42.021Z,20.60
2022-12-18T01:00:48.324Z,20.63
2022-12-18T01:05:54.837Z,17.20
2022-12-18T01:11:02.504Z,21.17
2022-12-18T01:16:10.489Z,18.52
2022-12-18T01:21:18.923Z,18.50
2022-12-18T01:26:27.467Z,19.27
2022-12-18T01:31:36.948Z,18.40
2022-12-18T01:36:43.499Z,20.17
2022-12-18T01:42:05.821Z,19.55
2022-12-18T01:47:29.933Z,18.02
2022-12-18T01:52:37.930Z,17.57
2022-12-18T01:57:44.803Z,18.73
2022-12-18T02:02:51.499Z,20.13
2022-12-18T02:08:14.811Z,20.88
2022-12-18T02:13:57.063Z,19.70
2022-12-18T02:19:07.926Z,20.23
2022-12-18T02:24:46.548Z,21.00
2022-12-18T02:29:59.171Z,21.97
2022-12-18T02:35:08.421Z,21.07
2022-12-18T02:40:18.439Z,20.75
2022-12-18T02:45:24.578Z,20.47
2022-12-18T02:50:45.237Z,21.23
2022-12-18T02:56:20.488Z,20.17
2022-12-18T03:02:01.660Z,22.90
2022-12-18T03:07:12.989Z,20.87
2022-12-18T03:12:26.510Z,22.17
2022-12-18T03:17:36.413Z,21.90
2022-12-18T03:22:47.151Z,18.87
2022-12-18T03:27:58.071Z,19.57
2022-12-18T03:33:11.679Z,19.07
2022-12-18T03:38:18.428Z,18.98
2022-12-18T03:44:00.690Z,18.23
2022-12-18T03:49:19.925Z,18.20
2022-12-18T03:54:27.803Z,18.35
2022-12-18T03:59:35.996Z,19.27
2022-12-18T04:04:45.128Z,18.27
2022-12-18T04:09:55.196Z,17.83
2022-12-18T04:15:01.313Z,18.50
2022-12-18T04:20:09.008Z,18.10
2022-12-18T04:25:15.783Z,18.40
2022-12-18T04:30:22.103Z,19.50
2022-12-18T04:40:34.498Z,16.47
2022-12-18T04:45:40.850Z,16.87
2022-12-18T04:50:47.320Z,10.60
2022-12-18T04:56:05.589Z,17.13
2022-12-18T05:01:16.521Z,18.75
2022-12-18T05:06:23.517Z,16.45
2022-12-18T05:11:29.859Z,16.43
2022-12-18T05:16:36.135Z,16.40
2022-12-18T05:21:42.555Z,17.70
2022-12-18T05:26:49.501Z,17.17
2022-12-18T05:31:55.597Z,18.00
2022-12-18T05:37:03.054Z,17.23
2022-12-18T05:42:09.570Z,17.10
2022-12-18T05:47:16.331Z,18.67
2022-12-18T05:57:29.266Z,16.30
2022-12-18T06:02:35.638Z,16.17
2022-12-18T06:07:42.429Z,16.27
2022-12-18T06:12:49.424Z,16.32
2022-12-18T06:17:56.722Z,16.30
2022-12-18T06:23:02.986Z,14.83
2022-12-18T06:33:15.838Z,12.73
2022-12-18T06:38:23.713Z,19.50
2022-12-18T06:43:30.668Z,14.10
2022-12-18T06:48:37.610Z,14.47
2022-12-18T06:53:44.239Z,14.53
2022-12-18T06:58:50.843Z,13.87
2022-12-18T07:03:58.835Z,17.23
2022-12-18T07:09:05.174Z,15.57
2022-12-18T07:14:11.679Z,15.57
2022-12-18T07:19:18.259Z,14.80
2022-12-18T07:24:26.207Z,12.95
2022-12-18T07:29:32.956Z,15.37
2022-12-18T07:34:39.958Z,16.63
2022-12-18T07:39:46.132Z,14.77
2022-12-18T07:44:54.258Z,13.63
2022-12-18T07:50:01.633Z,17.20
2022-12-18T08:00:16.820Z,15.27
2022-12-18T08:05:24.013Z,17.07
2022-12-18T08:10:30.295Z,16.20
2022-12-18T08:15:37.826Z,16.53
2022-12-18T08:20:48.676Z,16.53
2022-12-18T08:25:55.402Z,15.20
2022-12-18T08:31:01.893Z,14.93
2022-12-18T08:36:09.940Z,14.70
2022-12-18T08:41:20.113Z,19.07
2022-12-18T08:46:29.345Z,17.80
2022-12-18T08:51:38.574Z,24.67
2022-12-18T08:56:46.913Z,28.93
2022-12-18T09:01:55.984Z,33.63
2022-12-18T09:07:03.388Z,28.70
2022-12-18T09:12:10.311Z,32.47
2022-12-18T09:17:17.499Z,29.00
2022-12-18T09:22:24.564Z,29.15
2022-12-18T09:27:31.952Z,31.87
2022-12-18T09:37:43.937Z,36.33
2022-12-18T09:42:55.889Z,32.37
2022-12-18T09:48:08.158Z,33.07
2022-12-18T09:53:24.595Z,32.80
2022-12-18T09:58:34.372Z,34.18
2022-12-18T10:03:40.805Z,33.87
2022-12-18T10:09:10.944Z,36.13
2022-12-18T10:14:45.878Z,37.07
2022-12-18T10:20:25.568Z,41.40
2022-12-18T10:25:56.486Z,37.55
2022-12-18T10:31:04.169Z,34.57
2022-12-18T10:36:11.111Z,33.13
2022-12-18T10:41:29.336Z,35.35
2022-12-18T10:46:36.886Z,33.83
2022-12-18T10:51:43.385Z,34.83
2022-12-18T11:02:01.394Z,33.63
2022-12-18T11:07:12.290Z,31.00
2022-12-18T11:12:22.131Z,39.57
2022-12-18T11:17:37.477Z,42.40
2022-12-18T11:22:44.378Z,40.63
2022-12-18T11:27:57.992Z,42.63
2022-12-18T11:33:21.009Z,52.20
2022-12-18T11:38:31.050Z,50.77
2022-12-18T11:43:59.154Z,63.10
2022-12-18T11:49:15.540Z,44.30
2022-12-18T11:54:22.473Z,45.47
2022-12-18T11:59:42.222Z,42.27
2022-12-18T12:05:11.953Z,42.23
2022-12-18T12:10:47.400Z,37.90
2022-12-18T12:16:15.938Z,41.70
2022-12-18T12:21:45.300Z,40.12
2022-12-18T12:27:05.142Z,41.87
2022-12-18T12:32:41.420Z,40.03
2022-12-18T12:38:04.489Z,41.40
2022-12-18T12:43:33.914Z,44.23
2022-12-18T12:48:58.879Z,41.07
2022-12-18T12:54:10.579Z,42.97
2022-12-18T12:59:35.427Z,44.73
2022-12-18T13:05:07.627Z,40.67
2022-12-18T13:10:23.745Z,39.90
2022-12-18T13:15:51.335Z,40.17
2022-12-18T13:21:03.991Z,40.30
2022-12-18T13:26:28.006Z,40.17
2022-12-18T13:31:44.923Z,40.20
2022-12-18T13:36:53.796Z,40.17
2022-12-18T13:42:18.434Z,37.67
2022-12-18T13:47:40.037Z,38.55
2022-12-18T13:52:47.520Z,36.37
2022-12-18T13:58:07.477Z,36.07
2022-12-18T14:03:28.661Z,33.57
2022-12-18T14:08:44.722Z,34.37
2022-12-18T14:13:52.438Z,33.60
2022-12-18T14:19:03.267Z,31.13
2022-12-18T14:24:24.707Z,30.67
2022-12-18T14:29:33.686Z,30.95
2022-12-18T14:34:42.141Z,32.20
2022-12-18T14:40:02.160Z,31.60
2022-12-18T14:45:47.076Z,30.10
2022-12-18T14:51:12.093Z,34.43
2022-12-18T14:56:33.792Z,32.97
2022-12-18T15:01:44.370Z,34.27
2022-12-18T15:06:50.871Z,32.70
2022-12-18T15:12:02.897Z,30.23
2022-12-18T15:17:22.494Z,28.77
2022-12-18T15:22:38.267Z,28.43
2022-12-18T15:27:48.225Z,27.33
2022-12-18T15:33:15.587Z,27.52
2022-12-18T15:38:21.941Z,20.47
2022-12-18T15:49:02.300Z,25.70
2022-12-18T15:54:12.354Z,26.87
2022-12-18T15:59:23.004Z,25.72
2022-12-18T16:04:29.726Z,22.03
2022-12-18T16:09:36.170Z,20.43
2022-12-18T16:14:43.034Z,18.20
2022-12-18T16:19:49.696Z,19.43
2022-12-18T16:24:58.479Z,19.42
2022-12-18T16:30:05.641Z,17.80
2022-12-18T16:35:15.996Z,18.47
2022-12-18T16:40:22.541Z,17.45
2022-12-18T16:45:31.156Z,16.25
2022-12-18T16:50:41.243Z,18.77
2022-12-18T16:55:47.454Z,18.80
2022-12-18T17:00:54.256Z,16.17
2022-12-18T17:06:07.605Z,16.67
2022-12-18T17:11:15.219Z,10.85
2022-12-18T17:16:22.464Z,24.07
2022-12-18T17:21:29.372Z,18.82
2022-12-18T17:26:36.616Z,12.88
2022-12-18T17:31:43.197Z,13.30
2022-12-18T17:36:50.499Z,13.57
2022-12-18T17:41:58.878Z,13.53
2022-12-18T17:47:06.575Z,14.03
2022-12-18T17:52:15.655Z,15.75
2022-12-18T17:57:22.566Z,17.02
2022-12-18T18:02:31.225Z,13.43
2022-12-18T18:07:39.064Z,19.63
2022-12-18T18:13:02.922Z,22.60
2022-12-18T18:18:09.780Z,22.67
2022-12-18T18:23:19.303Z,17.12
2022-12-18T18:28:26.355Z,16.65
2022-12-18T18:33:34.286Z,16.75
2022-12-18T18:38:45.384Z,17.53
2022-12-18T18:43:49.613Z,15.33
2022-12-18T18:48:57.955Z,14.57
2022-12-18T18:54:05.447Z,16.13
2022-12-18T18:59:13.121Z,13.15
2022-12-18T19:04:20.187Z,21.57
2022-12-18T19:09:26.904Z,13.08
2022-12-18T19:14:35.145Z,16.83
2022-12-18T19:19:42.760Z,13.33
2022-12-18T19:24:49.258Z,17.37
2022-12-18T19:29:56.081Z,17.60
2022-12-18T19:35:03.354Z,14.97
2022-12-18T19:40:12.814Z,13.80
2022-12-18T19:45:21.006Z,11.80
2022-12-18T19:50:29.255Z,13.55
2022-12-18T19:55:37.578Z,15.37
2022-12-18T20:00:45.046Z,15.70
2022-12-18T20:05:52.346Z,14.17
2022-12-18T20:10:59.847Z,16.17
2022-12-18T20:16:07.229Z,12.83
2022-12-18T20:21:15.655Z,16.75
2022-12-18T20:26:22.037Z,12.13
2022-12-18T20:31:31.763Z,17.53
2022-12-18T20:36:38.736Z,16.17
2022-12-18T20:41:47.585Z,13.77
2022-12-18T20:47:00.943Z,16.63
2022-12-18T20:52:09.308Z,16.00
2022-12-18T20:57:17.201Z,16.40
2022-12-18T21:02:26.816Z,13.97
2022-12-18T21:07:33.721Z,14.00
2022-12-18T21:12:44.715Z,16.40
2022-12-18T21:17:54.268Z,12.43
2022-12-18T21:23:15.687Z,18.50
2022-12-18T21:28:13.945Z,15.45
2022-12-18T21:33:20.671Z,17.42
2022-12-18T21:38:30.118Z,16.43
2022-12-18T21:43:55.939Z,16.30
2022-12-18T21:49:04.995Z,17.37
2022-12-18T21:54:11.948Z,18.10
2022-12-18T21:59:22.643Z,22.23
2022-12-18T22:04:31.156Z,20.73
2022-12-18T22:09:37.831Z,16.90
2022-12-18T22:14:46.287Z,15.87
2022-12-18T22:19:52.971Z,17.37
2022-12-18T22:25:00.571Z,18.73
2022-12-18T22:30:09.902Z,17.83
2022-12-18T22:35:16.585Z,19.27
2022-12-18T22:40:25.934Z,20.65
2022-12-18T22:45:34.058Z,21.80
2022-12-18T22:50:40.650Z,21.67
2022-12-18T22:55:47.026Z,25.65
2022-12-18T23:00:53.914Z,27.23
2022-12-18T23:06:08.736Z,30.50
2022-12-18T23:11:18.009Z,29.40
2022-12-18T23:16:24.833Z,29.82
2022-12-18T23:21:31.932Z,30.68
2022-12-18T23:26:40.105Z,31.07
2022-12-18T23:31:46.901Z,31.30
2022-12-18T23:36:56.224Z,31.97
2022-12-18T23:42:02.753Z,33.00
2022-12-18T23:47:08.914Z,32.70
2022-12-18T23:52:15.731Z,32.75
2022-12-18T23:57:23.591Z,32.35
